sensor_id;sensor_type;location;lat;lon;timestamp;temperature;humidity
27114;DHT22;14648;49.730;8.614;2023-09-18T00:00:00;25.80;44.90
27114;DHT22;14648;49.730;8.614;2023-09-18T00:02:26;25.80;45.00
27114;DHT22;14648;49.730;8.614;2023-09-18T00:04:53;25.80;44.90
27114;DHT22;14648;49.730;8.614;2023-09-18T00:07:18;25.80;44.90
27114;DHT22;14648;49.730;8.614;2023-09-18T00:09:44;25.70;45.10
27114;DHT22;14648;49.730;8.614;2023-09-18T00:12:10;25.70;45.20
27114;DHT22;14648;49.730;8.614;2023-09-18T00:14:37;25.50;46.20
27114;DHT22;14648;49.730;8.614;2023-09-18T00:17:03;25.40;45.90
27114;DHT22;14648;49.730;8.614;2023-09-18T00:19:29;25.30;46.20
27114;DHT22;14648;49.730;8.614;2023-09-18T00:21:56;25.20;46.50
27114;DHT22;14648;49.730;8.614;2023-09-18T00:24:26;25.10;46.70
27114;DHT22;14648;49.730;8.614;2023-09-18T00:26:52;25.00;46.90
27114;DHT22;14648;49.730;8.614;2023-09-18T00:29:18;24.90;47.20
27114;DHT22;14648;49.730;8.614;2023-09-18T00:31:45;24.80;47.30
27114;DHT22;14648;49.730;8.614;2023-09-18T00:34:10;24.80;47.30
27114;DHT22;14648;49.730;8.614;2023-09-18T00:36:36;24.70;47.50
27114;DHT22;14648;49.730;8.614;2023-09-18T00:39:01;24.60;47.50
27114;DHT22;14648;49.730;8.614;2023-09-18T00:41:28;24.50;47.70
27114;DHT22;14648;49.730;8.614;2023-09-18T00:43:54;24.50;47.90
27114;DHT22;14648;49.730;8.614;2023-09-18T00:46:21;24.40;48.00
27114;DHT22;14648;49.730;8.614;2023-09-18T00:48:47;24.40;48.10
27114;DHT22;14648;49.730;8.614;2023-09-18T00:51:13;24.30;48.20
27114;DHT22;14648;49.730;8.614;2023-09-18T00:53:41;24.20;48.30
27114;DHT22;14648;49.730;8.614;2023-09-18T00:56:10;24.20;48.50
27114;DHT22;14648;49.730;8.614;2023-09-18T00:58:36;24.10;48.70
27114;DHT22;14648;49.730;8.614;2023-09-18T01:01:03;24.10;48.90
27114;DHT22;14648;49.730;8.614;2023-09-18T01:03:29;23.90;48.90
27114;DHT22;14648;49.730;8.614;2023-09-18T01:05:55;23.90;49.00
27114;DHT22;14648;49.730;8.614;2023-09-18T01:08:22;23.90;49.20
27114;DHT22;14648;49.730;8.614;2023-09-18T01:10:59;23.70;49.20
27114;DHT22;14648;49.730;8.614;2023-09-18T01:13:37;23.70;49.50
27114;DHT22;14648;49.730;8.614;2023-09-18T01:16:10;23.70;49.50
27114;DHT22;14648;49.730;8.614;2023-09-18T01:18:49;23.60;49.60
27114;DHT22;14648;49.730;8.614;2023-09-18T01:21:16;23.50;49.80
27114;DHT22;14648;49.730;8.614;2023-09-18T01:23:42;23.50;49.80
27114;DHT22;14648;49.730;8.614;2023-09-18T01:26:08;23.50;49.90
27114;DHT22;14648;49.730;8.614;2023-09-18T01:28:34;23.40;49.90
27114;DHT22;14648;49.730;8.614;2023-09-18T01:30:59;23.30;50.10
27114;DHT22;14648;49.730;8.614;2023-09-18T01:33:26;23.20;50.30
27114;DHT22;14648;49.730;8.614;2023-09-18T01:35:53;23.20;50.40
27114;DHT22;14648;49.730;8.614;2023-09-18T01:38:22;23.10;50.60
27114;DHT22;14648;49.730;8.614;2023-09-18T01:40:49;23.10;50.60
27114;DHT22;14648;49.730;8.614;2023-09-18T01:43:15;23.10;50.60
27114;DHT22;14648;49.730;8.614;2023-09-18T01:45:40;23.10;50.70
27114;DHT22;14648;49.730;8.614;2023-09-18T01:48:07;23.10;50.80
27114;DHT22;14648;49.730;8.614;2023-09-18T01:50:33;23.00;50.90
27114;DHT22;14648;49.730;8.614;2023-09-18T01:52:59;23.00;50.90
27114;DHT22;14648;49.730;8.614;2023-09-18T01:55:24;23.00;51.00
27114;DHT22;14648;49.730;8.614;2023-09-18T01:57:50;23.00;51.00
27114;DHT22;14648;49.730;8.614;2023-09-18T02:00:16;23.00;51.10
27114;DHT22;14648;49.730;8.614;2023-09-18T02:02:42;22.90;51.30
27114;DHT22;14648;49.730;8.614;2023-09-18T02:05:07;22.90;51.40
27114;DHT22;14648;49.730;8.614;2023-09-18T02:07:33;22.90;51.40
27114;DHT22;14648;49.730;8.614;2023-09-18T02:09:59;22.80;51.70
27114;DHT22;14648;49.730;8.614;2023-09-18T02:12:25;22.60;52.20
27114;DHT22;14648;49.730;8.614;2023-09-18T02:14:50;22.50;52.70
27114;DHT22;14648;49.730;8.614;2023-09-18T02:17:16;22.30;53.10
27114;DHT22;14648;49.730;8.614;2023-09-18T02:19:41;22.10;53.60
27114;DHT22;14648;49.730;8.614;2023-09-18T02:22:08;22.00;54.00
27114;DHT22;14648;49.730;8.614;2023-09-18T02:24:34;21.80;54.20
27114;DHT22;14648;49.730;8.614;2023-09-18T02:27:00;21.80;54.50
27114;DHT22;14648;49.730;8.614;2023-09-18T02:29:26;21.80;54.80
27114;DHT22;14648;49.730;8.614;2023-09-18T02:31:51;21.70;54.90
27114;DHT22;14648;49.730;8.614;2023-09-18T02:34:17;21.70;55.20
27114;DHT22;14648;49.730;8.614;2023-09-18T02:36:44;21.60;55.20
27114;DHT22;14648;49.730;8.614;2023-09-18T02:39:10;21.60;55.50
27114;DHT22;14648;49.730;8.614;2023-09-18T02:41:35;21.60;55.70
27114;DHT22;14648;49.730;8.614;2023-09-18T02:44:01;21.70;55.90
27114;DHT22;14648;49.730;8.614;2023-09-18T02:46:27;21.60;55.90
27114;DHT22;14648;49.730;8.614;2023-09-18T02:48:52;21.70;56.40
27114;DHT22;14648;49.730;8.614;2023-09-18T02:51:18;21.60;56.50
27114;DHT22;14648;49.730;8.614;2023-09-18T02:53:43;21.60;56.60
27114;DHT22;14648;49.730;8.614;2023-09-18T02:56:09;21.60;56.80
27114;DHT22;14648;49.730;8.614;2023-09-18T02:58:35;21.60;57.00
27114;DHT22;14648;49.730;8.614;2023-09-18T03:01:01;21.60;57.20
27114;DHT22;14648;49.730;8.614;2023-09-18T03:03:29;21.60;57.40
27114;DHT22;14648;49.730;8.614;2023-09-18T03:06:00;21.60;57.50
27114;DHT22;14648;49.730;8.614;2023-09-18T03:08:27;21.60;57.80
27114;DHT22;14648;49.730;8.614;2023-09-18T03:10:54;21.60;57.70
27114;DHT22;14648;49.730;8.614;2023-09-18T03:13:19;21.60;57.90
27114;DHT22;14648;49.730;8.614;2023-09-18T03:15:45;21.60;57.90
27114;DHT22;14648;49.730;8.614;2023-09-18T03:18:12;21.60;57.80
27114;DHT22;14648;49.730;8.614;2023-09-18T03:20:38;21.60;57.70
27114;DHT22;14648;49.730;8.614;2023-09-18T03:23:04;21.60;57.80
27114;DHT22;14648;49.730;8.614;2023-09-18T03:25:30;21.60;57.90
27114;DHT22;14648;49.730;8.614;2023-09-18T03:27:57;21.60;58.80
27114;DHT22;14648;49.730;8.614;2023-09-18T03:30:24;21.60;58.20
27114;DHT22;14648;49.730;8.614;2023-09-18T03:32:50;21.50;58.40
27114;DHT22;14648;49.730;8.614;2023-09-18T03:35:17;21.60;58.30
27114;DHT22;14648;49.730;8.614;2023-09-18T03:37:44;21.60;58.10
27114;DHT22;14648;49.730;8.614;2023-09-18T03:40:10;21.70;58.10
27114;DHT22;14648;49.730;8.614;2023-09-18T03:42:36;21.70;58.10
27114;DHT22;14648;49.730;8.614;2023-09-18T03:45:02;21.70;58.10
27114;DHT22;14648;49.730;8.614;2023-09-18T03:47:28;21.80;58.00
27114;DHT22;14648;49.730;8.614;2023-09-18T03:49:54;21.80;57.80
27114;DHT22;14648;49.730;8.614;2023-09-18T03:52:20;21.90;57.70
27114;DHT22;14648;49.730;8.614;2023-09-18T03:54:45;22.00;57.60
27114;DHT22;14648;49.730;8.614;2023-09-18T03:57:11;22.00;57.60
27114;DHT22;14648;49.730;8.614;2023-09-18T03:59:37;22.10;57.60
27114;DHT22;14648;49.730;8.614;2023-09-18T04:02:02;22.10;57.60
27114;DHT22;14648;49.730;8.614;2023-09-18T04:04:29;22.10;57.50
27114;DHT22;14648;49.730;8.614;2023-09-18T04:06:55;22.20;57.40
27114;DHT22;14648;49.730;8.614;2023-09-18T04:09:21;22.30;57.40
27114;DHT22;14648;49.730;8.614;2023-09-18T04:11:46;22.30;57.20
27114;DHT22;14648;49.730;8.614;2023-09-18T04:14:12;22.30;57.10
27114;DHT22;14648;49.730;8.614;2023-09-18T04:16:38;22.40;57.10
27114;DHT22;14648;49.730;8.614;2023-09-18T04:19:07;22.40;57.10
27114;DHT22;14648;49.730;8.614;2023-09-18T04:21:33;22.40;57.10
27114;DHT22;14648;49.730;8.614;2023-09-18T04:23:59;22.40;57.20
27114;DHT22;14648;49.730;8.614;2023-09-18T04:26:25;22.40;57.10
27114;DHT22;14648;49.730;8.614;2023-09-18T04:28:55;22.40;57.20
27114;DHT22;14648;49.730;8.614;2023-09-18T04:31:22;22.40;57.20
27114;DHT22;14648;49.730;8.614;2023-09-18T04:33:47;22.40;57.30
27114;DHT22;14648;49.730;8.614;2023-09-18T04:36:13;22.30;57.50
27114;DHT22;14648;49.730;8.614;2023-09-18T04:38:39;22.30;57.60
27114;DHT22;14648;49.730;8.614;2023-09-18T04:41:05;22.30;57.80
27114;DHT22;14648;49.730;8.614;2023-09-18T04:43:33;22.20;57.90
27114;DHT22;14648;49.730;8.614;2023-09-18T04:46:00;22.10;58.20
27114;DHT22;14648;49.730;8.614;2023-09-18T04:48:29;22.00;58.30
27114;DHT22;14648;49.730;8.614;2023-09-18T04:50:55;21.90;58.40
27114;DHT22;14648;49.730;8.614;2023-09-18T04:53:21;21.90;58.70
27114;DHT22;14648;49.730;8.614;2023-09-18T04:55:47;21.80;58.70
27114;DHT22;14648;49.730;8.614;2023-09-18T04:58:15;21.80;58.80
27114;DHT22;14648;49.730;8.614;2023-09-18T05:00:44;21.80;58.90
27114;DHT22;14648;49.730;8.614;2023-09-18T05:03:10;21.70;58.90
27114;DHT22;14648;49.730;8.614;2023-09-18T05:05:36;21.70;59.10
27114;DHT22;14648;49.730;8.614;2023-09-18T05:08:05;21.70;59.10
27114;DHT22;14648;49.730;8.614;2023-09-18T05:10:36;21.70;59.20
27114;DHT22;14648;49.730;8.614;2023-09-18T05:13:03;21.60;59.20
27114;DHT22;14648;49.730;8.614;2023-09-18T05:15:29;21.60;59.30
27114;DHT22;14648;49.730;8.614;2023-09-18T05:17:56;21.60;59.30
27114;DHT22;14648;49.730;8.614;2023-09-18T05:20:24;21.50;59.30
27114;DHT22;14648;49.730;8.614;2023-09-18T05:22:51;21.50;59.40
27114;DHT22;14648;49.730;8.614;2023-09-18T05:25:22;21.50;59.40
27114;DHT22;14648;49.730;8.614;2023-09-18T05:27:49;21.50;59.50
27114;DHT22;14648;49.730;8.614;2023-09-18T05:30:25;21.50;59.70
27114;DHT22;14648;49.730;8.614;2023-09-18T05:32:58;21.50;59.70
27114;DHT22;14648;49.730;8.614;2023-09-18T05:35:33;21.50;59.80
27114;DHT22;14648;49.730;8.614;2023-09-18T05:38:00;21.50;59.90
27114;DHT22;14648;49.730;8.614;2023-09-18T05:40:26;21.50;59.90
27114;DHT22;14648;49.730;8.614;2023-09-18T05:42:53;21.50;60.10
27114;DHT22;14648;49.730;8.614;2023-09-18T05:45:20;21.40;60.20
27114;DHT22;14648;49.730;8.614;2023-09-18T05:47:47;21.40;60.30
27114;DHT22;14648;49.730;8.614;2023-09-18T05:50:14;21.30;60.50
27114;DHT22;14648;49.730;8.614;2023-09-18T05:52:47;21.40;60.70
27114;DHT22;14648;49.730;8.614;2023-09-18T05:55:14;21.30;61.00
27114;DHT22;14648;49.730;8.614;2023-09-18T05:57:41;21.30;61.00
27114;DHT22;14648;49.730;8.614;2023-09-18T06:00:07;21.30;61.20
27114;DHT22;14648;49.730;8.614;2023-09-18T06:02:38;21.20;61.20
27114;DHT22;14648;49.730;8.614;2023-09-18T06:05:05;21.20;61.20
27114;DHT22;14648;49.730;8.614;2023-09-18T06:07:32;21.20;61.30
27114;DHT22;14648;49.730;8.614;2023-09-18T06:09:58;21.20;61.30
27114;DHT22;14648;49.730;8.614;2023-09-18T06:12:24;21.20;61.30
27114;DHT22;14648;49.730;8.614;2023-09-18T06:14:51;21.20;61.20
27114;DHT22;14648;49.730;8.614;2023-09-18T06:17:17;21.20;61.20
27114;DHT22;14648;49.730;8.614;2023-09-18T06:19:44;21.30;61.20
27114;DHT22;14648;49.730;8.614;2023-09-18T06:22:10;21.30;61.10
27114;DHT22;14648;49.730;8.614;2023-09-18T06:24:37;21.30;61.00
27114;DHT22;14648;49.730;8.614;2023-09-18T06:27:03;21.30;60.90
27114;DHT22;14648;49.730;8.614;2023-09-18T06:29:33;21.30;60.80
27114;DHT22;14648;49.730;8.614;2023-09-18T06:31:59;21.40;60.80
27114;DHT22;14648;49.730;8.614;2023-09-18T06:34:25;21.30;60.80
27114;DHT22;14648;49.730;8.614;2023-09-18T06:36:51;21.30;60.90
27114;DHT22;14648;49.730;8.614;2023-09-18T06:39:16;21.30;60.90
27114;DHT22;14648;49.730;8.614;2023-09-18T06:41:42;21.40;61.00
27114;DHT22;14648;49.730;8.614;2023-09-18T06:44:08;21.40;61.00
27114;DHT22;14648;49.730;8.614;2023-09-18T06:46:34;21.40;61.10
27114;DHT22;14648;49.730;8.614;2023-09-18T06:49:00;21.40;61.10
27114;DHT22;14648;49.730;8.614;2023-09-18T06:51:29;21.40;61.10
27114;DHT22;14648;49.730;8.614;2023-09-18T06:53:55;21.40;61.20
27114;DHT22;14648;49.730;8.614;2023-09-18T06:56:23;21.40;61.20
27114;DHT22;14648;49.730;8.614;2023-09-18T06:58:50;21.40;61.30
27114;DHT22;14648;49.730;8.614;2023-09-18T07:01:17;21.40;61.40
27114;DHT22;14648;49.730;8.614;2023-09-18T07:03:45;21.40;61.40
27114;DHT22;14648;49.730;8.614;2023-09-18T07:06:13;21.40;61.50
27114;DHT22;14648;49.730;8.614;2023-09-18T07:08:44;21.40;61.60
27114;DHT22;14648;49.730;8.614;2023-09-18T07:11:10;21.40;61.70
27114;DHT22;14648;49.730;8.614;2023-09-18T07:13:37;21.40;61.70
27114;DHT22;14648;49.730;8.614;2023-09-18T07:16:03;21.40;61.80
27114;DHT22;14648;49.730;8.614;2023-09-18T07:18:29;21.40;61.80
27114;DHT22;14648;49.730;8.614;2023-09-18T07:20:54;21.40;61.90
27114;DHT22;14648;49.730;8.614;2023-09-18T07:23:20;21.40;62.00
27114;DHT22;14648;49.730;8.614;2023-09-18T07:25:49;21.40;62.00
27114;DHT22;14648;49.730;8.614;2023-09-18T07:28:14;21.30;62.20
27114;DHT22;14648;49.730;8.614;2023-09-18T07:30:43;21.30;62.20
27114;DHT22;14648;49.730;8.614;2023-09-18T07:33:10;21.40;62.30
27114;DHT22;14648;49.730;8.614;2023-09-18T07:35:36;21.40;62.40
27114;DHT22;14648;49.730;8.614;2023-09-18T07:38:03;21.40;62.40
27114;DHT22;14648;49.730;8.614;2023-09-18T07:40:29;21.40;62.50
27114;DHT22;14648;49.730;8.614;2023-09-18T07:42:55;21.40;62.50
27114;DHT22;14648;49.730;8.614;2023-09-18T07:45:20;21.40;62.40
27114;DHT22;14648;49.730;8.614;2023-09-18T07:47:48;21.50;62.50
27114;DHT22;14648;49.730;8.614;2023-09-18T07:50:13;21.50;62.50
27114;DHT22;14648;49.730;8.614;2023-09-18T07:52:39;21.50;62.60
27114;DHT22;14648;49.730;8.614;2023-09-18T07:55:05;21.50;62.60
27114;DHT22;14648;49.730;8.614;2023-09-18T07:57:31;21.50;62.60
27114;DHT22;14648;49.730;8.614;2023-09-18T08:00:00;21.60;62.70
27114;DHT22;14648;49.730;8.614;2023-09-18T08:02:32;21.60;62.70
27114;DHT22;14648;49.730;8.614;2023-09-18T08:05:00;21.60;62.70
27114;DHT22;14648;49.730;8.614;2023-09-18T08:07:27;21.60;62.80
27114;DHT22;14648;49.730;8.614;2023-09-18T08:09:53;21.70;62.90
27114;DHT22;14648;49.730;8.614;2023-09-18T08:12:19;21.70;62.90
27114;DHT22;14648;49.730;8.614;2023-09-18T08:14:45;21.70;62.90
27114;DHT22;14648;49.730;8.614;2023-09-18T08:17:12;21.70;62.80
27114;DHT22;14648;49.730;8.614;2023-09-18T08:19:37;21.80;62.70
27114;DHT22;14648;49.730;8.614;2023-09-18T08:22:05;21.80;62.80
27114;DHT22;14648;49.730;8.614;2023-09-18T08:24:30;21.80;62.80
27114;DHT22;14648;49.730;8.614;2023-09-18T08:26:56;21.80;62.80
27114;DHT22;14648;49.730;8.614;2023-09-18T08:29:22;21.80;62.70
27114;DHT22;14648;49.730;8.614;2023-09-18T08:31:48;21.80;62.70
27114;DHT22;14648;49.730;8.614;2023-09-18T08:34:15;21.80;62.80
27114;DHT22;14648;49.730;8.614;2023-09-18T08:36:41;21.90;62.80
27114;DHT22;14648;49.730;8.614;2023-09-18T08:39:07;21.90;62.80
27114;DHT22;14648;49.730;8.614;2023-09-18T08:41:33;21.90;62.80
27114;DHT22;14648;49.730;8.614;2023-09-18T08:44:03;21.90;62.80
27114;DHT22;14648;49.730;8.614;2023-09-18T08:46:30;21.90;62.80
27114;DHT22;14648;49.730;8.614;2023-09-18T08:48:57;21.90;63.60
27114;DHT22;14648;49.730;8.614;2023-09-18T08:51:24;22.00;62.80
27114;DHT22;14648;49.730;8.614;2023-09-18T08:53:50;22.00;62.80
27114;DHT22;14648;49.730;8.614;2023-09-18T08:56:17;22.00;62.90
27114;DHT22;14648;49.730;8.614;2023-09-18T08:58:43;22.00;62.90
27114;DHT22;14648;49.730;8.614;2023-09-18T09:01:10;22.00;62.90
27114;DHT22;14648;49.730;8.614;2023-09-18T09:03:43;22.00;62.90
27114;DHT22;14648;49.730;8.614;2023-09-18T09:06:11;22.10;63.10
27114;DHT22;14648;49.730;8.614;2023-09-18T09:08:37;22.10;62.90
27114;DHT22;14648;49.730;8.614;2023-09-18T09:11:04;22.10;62.90
27114;DHT22;14648;49.730;8.614;2023-09-18T09:13:30;22.10;62.90
27114;DHT22;14648;49.730;8.614;2023-09-18T09:15:57;22.10;63.00
27114;DHT22;14648;49.730;8.614;2023-09-18T09:18:26;22.10;63.00
27114;DHT22;14648;49.730;8.614;2023-09-18T09:21:01;22.10;63.00
27114;DHT22;14648;49.730;8.614;2023-09-18T09:23:30;22.10;63.20
27114;DHT22;14648;49.730;8.614;2023-09-18T09:26:15;22.10;63.10
27114;DHT22;14648;49.730;8.614;2023-09-18T09:28:43;22.10;63.10
27114;DHT22;14648;49.730;8.614;2023-09-18T09:31:10;22.20;63.10
27114;DHT22;14648;49.730;8.614;2023-09-18T09:33:36;22.20;63.00
27114;DHT22;14648;49.730;8.614;2023-09-18T09:36:06;22.30;63.10
27114;DHT22;14648;49.730;8.614;2023-09-18T09:38:33;22.20;63.00
27114;DHT22;14648;49.730;8.614;2023-09-18T09:41:04;22.30;63.00
27114;DHT22;14648;49.730;8.614;2023-09-18T09:43:35;22.30;63.00
27114;DHT22;14648;49.730;8.614;2023-09-18T09:46:01;22.30;63.00
27114;DHT22;14648;49.730;8.614;2023-09-18T09:48:27;22.40;63.00
27114;DHT22;14648;49.730;8.614;2023-09-18T09:51:00;22.30;63.00
27114;DHT22;14648;49.730;8.614;2023-09-18T09:53:44;22.40;63.00
27114;DHT22;14648;49.730;8.614;2023-09-18T09:56:14;22.40;63.00
27114;DHT22;14648;49.730;8.614;2023-09-18T09:58:40;22.30;62.90
27114;DHT22;14648;49.730;8.614;2023-09-18T10:01:12;22.30;62.90
27114;DHT22;14648;49.730;8.614;2023-09-18T10:03:44;22.40;62.90
27114;DHT22;14648;49.730;8.614;2023-09-18T10:06:10;22.40;63.00
27114;DHT22;14648;49.730;8.614;2023-09-18T10:08:39;22.30;62.90
27114;DHT22;14648;49.730;8.614;2023-09-18T10:11:07;22.30;62.90
27114;DHT22;14648;49.730;8.614;2023-09-18T10:13:59;22.30;63.00
27114;DHT22;14648;49.730;8.614;2023-09-18T10:16:30;22.30;63.10
27114;DHT22;14648;49.730;8.614;2023-09-18T10:22:21;22.30;63.10
27114;DHT22;14648;49.730;8.614;2023-09-18T10:24:56;22.30;63.00
27114;DHT22;14648;49.730;8.614;2023-09-18T10:27:26;22.30;63.00
27114;DHT22;14648;49.730;8.614;2023-09-18T10:29:53;22.40;62.90
27114;DHT22;14648;49.730;8.614;2023-09-18T10:32:20;22.40;62.90
27114;DHT22;14648;49.730;8.614;2023-09-18T10:34:47;22.40;62.90
27114;DHT22;14648;49.730;8.614;2023-09-18T10:37:15;22.50;63.00
27114;DHT22;14648;49.730;8.614;2023-09-18T10:39:41;22.40;62.90
27114;DHT22;14648;49.730;8.614;2023-09-18T10:42:10;22.50;63.00
27114;DHT22;14648;49.730;8.614;2023-09-18T10:44:36;22.60;63.00
27114;DHT22;14648;49.730;8.614;2023-09-18T10:47:06;22.60;63.00
27114;DHT22;14648;49.730;8.614;2023-09-18T10:49:34;22.60;63.00
27114;DHT22;14648;49.730;8.614;2023-09-18T10:52:00;22.60;62.90
27114;DHT22;14648;49.730;8.614;2023-09-18T10:54:28;22.60;63.00
27114;DHT22;14648;49.730;8.614;2023-09-18T10:56:56;22.70;63.10
27114;DHT22;14648;49.730;8.614;2023-09-18T10:59:22;22.70;63.00
27114;DHT22;14648;49.730;8.614;2023-09-18T11:01:49;22.70;63.00
27114;DHT22;14648;49.730;8.614;2023-09-18T11:04:18;22.80;62.90
27114;DHT22;14648;49.730;8.614;2023-09-18T11:09:26;22.90;63.00
27114;DHT22;14648;49.730;8.614;2023-09-18T11:17:58;23.00;62.70
27114;DHT22;14648;49.730;8.614;2023-09-18T11:20:24;23.10;62.70
27114;DHT22;14648;49.730;8.614;2023-09-18T11:23:18;23.20;62.50
27114;DHT22;14648;49.730;8.614;2023-09-18T11:25:44;23.20;62.70
27114;DHT22;14648;49.730;8.614;2023-09-18T11:28:28;23.30;62.70
27114;DHT22;14648;49.730;8.614;2023-09-18T11:30:57;23.30;62.70
27114;DHT22;14648;49.730;8.614;2023-09-18T11:33:40;23.40;62.60
27114;DHT22;14648;49.730;8.614;2023-09-18T11:36:14;23.50;62.70
27114;DHT22;14648;49.730;8.614;2023-09-18T11:38:57;23.50;62.60
27114;DHT22;14648;49.730;8.614;2023-09-18T11:41:29;23.50;62.60
27114;DHT22;14648;49.730;8.614;2023-09-18T11:46:44;23.50;62.70
27114;DHT22;14648;49.730;8.614;2023-09-18T11:49:11;23.40;62.50
27114;DHT22;14648;49.730;8.614;2023-09-18T11:51:37;23.50;62.50
27114;DHT22;14648;49.730;8.614;2023-09-18T11:54:05;23.60;62.50
27114;DHT22;14648;49.730;8.614;2023-09-18T11:56:36;23.70;62.30
27114;DHT22;14648;49.730;8.614;2023-09-18T11:59:01;23.80;62.10
27114;DHT22;14648;49.730;8.614;2023-09-18T12:01:30;24.00;62.00
27114;DHT22;14648;49.730;8.614;2023-09-18T12:04:03;24.10;61.80
27114;DHT22;14648;49.730;8.614;2023-09-18T12:06:39;24.20;61.70
27114;DHT22;14648;49.730;8.614;2023-09-18T12:09:06;24.30;61.70
27114;DHT22;14648;49.730;8.614;2023-09-18T12:11:36;24.40;61.60
27114;DHT22;14648;49.730;8.614;2023-09-18T12:14:03;24.50;61.60
27114;DHT22;14648;49.730;8.614;2023-09-18T12:16:29;24.50;61.50
27114;DHT22;14648;49.730;8.614;2023-09-18T12:18:55;24.40;61.40
27114;DHT22;14648;49.730;8.614;2023-09-18T12:21:22;24.30;61.40
27114;DHT22;14648;49.730;8.614;2023-09-18T12:23:48;24.30;61.50
27114;DHT22;14648;49.730;8.614;2023-09-18T12:26:16;24.20;61.40
27114;DHT22;14648;49.730;8.614;2023-09-18T12:28:45;24.20;61.40
27114;DHT22;14648;49.730;8.614;2023-09-18T12:31:12;24.10;61.60
27114;DHT22;14648;49.730;8.614;2023-09-18T12:33:39;24.10;61.60
27114;DHT22;14648;49.730;8.614;2023-09-18T12:36:07;24.00;61.50
27114;DHT22;14648;49.730;8.614;2023-09-18T12:38:33;24.00;61.20
27114;DHT22;14648;49.730;8.614;2023-09-18T12:41:00;24.00;61.20
27114;DHT22;14648;49.730;8.614;2023-09-18T12:43:37;23.90;61.10
27114;DHT22;14648;49.730;8.614;2023-09-18T12:46:07;23.90;61.00
27114;DHT22;14648;49.730;8.614;2023-09-18T12:48:38;23.90;61.00
27114;DHT22;14648;49.730;8.614;2023-09-18T12:51:13;23.80;60.80
27114;DHT22;14648;49.730;8.614;2023-09-18T12:53:40;23.80;60.90
27114;DHT22;14648;49.730;8.614;2023-09-18T12:56:11;23.80;60.80
27114;DHT22;14648;49.730;8.614;2023-09-18T12:58:41;23.80;60.70
27114;DHT22;14648;49.730;8.614;2023-09-18T13:01:11;23.80;60.60
27114;DHT22;14648;49.730;8.614;2023-09-18T13:03:44;23.80;60.50
27114;DHT22;14648;49.730;8.614;2023-09-18T13:06:16;23.90;60.60
27114;DHT22;14648;49.730;8.614;2023-09-18T13:08:46;23.90;60.50
27114;DHT22;14648;49.730;8.614;2023-09-18T13:11:12;23.90;60.40
27114;DHT22;14648;49.730;8.614;2023-09-18T13:13:40;23.80;60.20
27114;DHT22;14648;49.730;8.614;2023-09-18T13:16:10;23.90;60.40
27114;DHT22;14648;49.730;8.614;2023-09-18T13:18:36;23.90;60.30
27114;DHT22;14648;49.730;8.614;2023-09-18T13:21:10;23.90;60.20
27114;DHT22;14648;49.730;8.614;2023-09-18T13:23:37;24.00;60.10
27114;DHT22;14648;49.730;8.614;2023-09-18T13:26:04;24.00;60.00
27114;DHT22;14648;49.730;8.614;2023-09-18T13:28:33;24.00;60.00
27114;DHT22;14648;49.730;8.614;2023-09-18T13:31:02;24.00;59.90
27114;DHT22;14648;49.730;8.614;2023-09-18T13:33:32;24.00;59.90
27114;DHT22;14648;49.730;8.614;2023-09-18T13:35:59;24.00;59.80
27114;DHT22;14648;49.730;8.614;2023-09-18T13:38:25;24.00;59.80
27114;DHT22;14648;49.730;8.614;2023-09-18T13:40:53;24.00;59.80
27114;DHT22;14648;49.730;8.614;2023-09-18T13:43:20;24.00;59.80
27114;DHT22;14648;49.730;8.614;2023-09-18T13:45:48;24.00;59.60
27114;DHT22;14648;49.730;8.614;2023-09-18T13:48:17;24.00;59.40
27114;DHT22;14648;49.730;8.614;2023-09-18T13:50:43;24.00;59.50
27114;DHT22;14648;49.730;8.614;2023-09-18T13:53:09;24.10;59.50
27114;DHT22;14648;49.730;8.614;2023-09-18T13:55:34;24.10;59.50
27114;DHT22;14648;49.730;8.614;2023-09-18T13:58:01;24.10;59.50
27114;DHT22;14648;49.730;8.614;2023-09-18T14:00:30;24.20;59.30
27114;DHT22;14648;49.730;8.614;2023-09-18T14:02:57;24.30;59.30
27114;DHT22;14648;49.730;8.614;2023-09-18T14:05:23;24.40;59.20
27114;DHT22;14648;49.730;8.614;2023-09-18T14:07:49;24.50;59.20
27114;DHT22;14648;49.730;8.614;2023-09-18T14:10:15;24.70;59.00
27114;DHT22;14648;49.730;8.614;2023-09-18T14:12:41;24.90;59.00
27114;DHT22;14648;49.730;8.614;2023-09-18T14:15:09;25.10;58.60
27114;DHT22;14648;49.730;8.614;2023-09-18T14:17:35;25.10;58.50
27114;DHT22;14648;49.730;8.614;2023-09-18T14:20:03;25.10;58.40
27114;DHT22;14648;49.730;8.614;2023-09-18T14:22:32;25.00;58.40
27114;DHT22;14648;49.730;8.614;2023-09-18T14:24:58;25.00;58.30
27114;DHT22;14648;49.730;8.614;2023-09-18T14:27:27;24.90;58.40
27114;DHT22;14648;49.730;8.614;2023-09-18T14:29:55;24.90;58.30
27114;DHT22;14648;49.730;8.614;2023-09-18T14:32:21;24.90;58.30
27114;DHT22;14648;49.730;8.614;2023-09-18T14:34:47;25.00;58.30
27114;DHT22;14648;49.730;8.614;2023-09-18T14:37:13;25.10;58.00
27114;DHT22;14648;49.730;8.614;2023-09-18T14:39:39;25.30;57.90
27114;DHT22;14648;49.730;8.614;2023-09-18T14:42:05;25.40;57.70
27114;DHT22;14648;49.730;8.614;2023-09-18T14:44:30;25.50;57.60
27114;DHT22;14648;49.730;8.614;2023-09-18T14:46:57;25.60;57.40
27114;DHT22;14648;49.730;8.614;2023-09-18T14:49:23;25.60;57.30
27114;DHT22;14648;49.730;8.614;2023-09-18T14:51:50;25.50;57.10
27114;DHT22;14648;49.730;8.614;2023-09-18T14:54:18;25.50;57.00
27114;DHT22;14648;49.730;8.614;2023-09-18T14:56:43;25.40;57.10
27114;DHT22;14648;49.730;8.614;2023-09-18T14:59:11;25.30;57.10
27114;DHT22;14648;49.730;8.614;2023-09-18T15:01:37;25.20;57.10
27114;DHT22;14648;49.730;8.614;2023-09-18T15:04:03;25.30;57.10
27114;DHT22;14648;49.730;8.614;2023-09-18T15:06:29;25.30;56.90
27114;DHT22;14648;49.730;8.614;2023-09-18T15:08:55;25.40;56.70
27114;DHT22;14648;49.730;8.614;2023-09-18T15:11:21;25.30;56.60
27114;DHT22;14648;49.730;8.614;2023-09-18T15:13:46;25.30;56.50
27114;DHT22;14648;49.730;8.614;2023-09-18T15:16:12;25.40;56.50
27114;DHT22;14648;49.730;8.614;2023-09-18T15:18:38;25.40;56.50
27114;DHT22;14648;49.730;8.614;2023-09-18T15:21:05;25.40;56.40
27114;DHT22;14648;49.730;8.614;2023-09-18T15:23:31;25.40;56.30
27114;DHT22;14648;49.730;8.614;2023-09-18T15:25:57;25.30;56.20
27114;DHT22;14648;49.730;8.614;2023-09-18T15:28:23;25.30;56.30
27114;DHT22;14648;49.730;8.614;2023-09-18T15:30:52;25.30;56.20
27114;DHT22;14648;49.730;8.614;2023-09-18T15:33:19;25.30;56.00
27114;DHT22;14648;49.730;8.614;2023-09-18T15:35:48;25.20;56.00
27114;DHT22;14648;49.730;8.614;2023-09-18T15:38:14;25.10;55.90
27114;DHT22;14648;49.730;8.614;2023-09-18T15:40:40;25.00;55.80
27114;DHT22;14648;49.730;8.614;2023-09-18T15:43:06;24.90;55.80
27114;DHT22;14648;49.730;8.614;2023-09-18T15:45:31;24.80;55.70